• Join FlightAware (Why Join?)
  • Login
  • US Flag 
12:18AM EDT


 

Airport Tracker/Info


-or-


 

Live Flight TrackerFlight Track Log ✈ AMF706 ✈ 27-Apr-2013 ✈ KCVG - KBED

Flight Track Log - Related Links

Times and Time Zones

All times are in EDT time to prevent confusion due to time zone crossing. See the AMF706 flight status page for this flight to view local times or setup timezone preferences in your user account.

Time Position Orientation Groundspeed Altitude Reporting Facility
EDT Latitude Longitude Course Direction KTS MPH feet Rate Location/Type
10:53AM 39.0500 -84.6667 270° West 142 163 1,300  Level Cincinnati TRACON
10:53AM 39.0500 -84.6833 270° West 143 165 1,800 2,040 Climbing Cincinnati TRACON
10:54AM 39.0500 -84.7333 270° West 156 180 4,000 2,100 Climbing Cincinnati TRACON
10:55AM 39.0500 -84.8000 270° West 162 186 6,100 1,740 Climbing Cincinnati TRACON
10:56AM 39.0833 -84.8333 322° Northwest 204 235 7,500 1,260 Climbing Cincinnati TRACON
10:57AM 39.1333 -84.8167 14° North 218 251 8,700 1,260 Climbing Cincinnati TRACON
10:58AM 39.1667 -84.7500 57° Northeast 211 243 10,100 1,260 Climbing Cincinnati TRACON
11:00AM 39.2253 -84.6311 58° Northeast 212 244 12,600 1,200 Climbing Indianapolis Center
11:01AM 39.2575 -84.5689 56° Northeast 207 238 13,800 900 Climbing Indianapolis Center
11:02AM 39.3117 -84.5067 42° Northeast 219 252 14,500 600 Climbing Indianapolis Center
11:03AM 39.3628 -84.4519 40° Northeast 233 268 15,100 720 Climbing Indianapolis Center
11:04AM 39.4206 -84.4108 29° Northeast 234 269 16,000 780 Climbing Indianapolis Center
11:05AM 39.4758 -84.3694 30° Northeast 229 264 16,800 780 Climbing Indianapolis Center
11:06AM 39.5297 -84.3267 31° Northeast 225 259 17,600 540 Climbing Indianapolis Center
11:07AM 39.5850 -84.2842 31° Northeast 227 261 18,000 240 Climbing Indianapolis Center
11:09AM 39.6247 -84.2156 53° Northeast 236 272 18,200 300 Climbing Indianapolis Center
11:10AM 39.6511 -84.1339 67° East 249 287 18,700 300 Climbing Indianapolis Center
11:11AM 39.6603 -84.0453 82° East 248 285 18,900 120 Climbing Indianapolis Center
11:12AM 39.6706 -83.9528 82° East 257 296 19,000  Climbing Indianapolis Center
11:13AM 39.6822 -83.8583 81° East 263 303 19,000  Level Indianapolis Center
11:14AM 39.6978 -83.7481 80° East 264 304 19,000  Level Indianapolis Center
11:15AM 39.7114 -83.6578 79° East 258 297 19,000  Level Indianapolis Center
11:16AM 39.7239 -83.5686 80° East 252 290 19,000  Level Indianapolis Center
11:17AM 39.7361 -83.4803 80° East 252 290 19,000  Level Indianapolis Center
11:18AM 39.7472 -83.3925 81° East 249 287 19,000  Level Indianapolis Center
11:19AM 39.7592 -83.3047 80° East 248 285 19,000  Level Indianapolis Center
11:20AM 39.7706 -83.2142 81° East 252 290 19,000  Level Indianapolis Center
11:21AM 39.7850 -83.1111 80° East 249 287 19,000  Level Indianapolis Center
11:22AM 39.7978 -83.0219 79° East 250 288 19,000  Level Indianapolis Center
11:23AM 39.8100 -82.9322 80° East 250 288 19,000  Level Indianapolis Center
11:24AM 39.8219 -82.8428 80° East 247 284 19,000  Level Indianapolis Center
11:25AM 39.8328 -82.7539 81° East 248 285 19,000  Level Indianapolis Center
11:26AM 39.8436 -82.6639 81° East 251 289 19,000  Level Indianapolis Center
11:27AM 39.8547 -82.5739 81° East 252 290 19,000  Level Indianapolis Center
11:28AM 39.8661 -82.4833 81° East 251 289 19,000  Level Indianapolis Center
11:29AM 39.8786 -82.3922 80° East 253 291 19,000  Level Indianapolis Center
11:30AM 39.8900 -82.3025 81° East 251 289 19,000  Level Indianapolis Center
11:31AM 39.9014 -82.2119 81° East 251 289 19,000  Level Indianapolis Center
11:32AM 39.9125 -82.1219 81° East 251 289 19,000  Level Indianapolis Center
11:33AM 39.9236 -82.0319 81° East 250 288 19,000  Level Indianapolis Center
11:34AM 39.9328 -81.9256 84° East 250 288 19,000  Level Indianapolis Center
11:35AM 39.9483 -81.8350 77° East 253 291 19,000  Level Indianapolis Center
11:36AM 39.9653 -81.7478 76° East 248 285 19,100  Climbing Indianapolis Center
11:37AM 39.9808 -81.6625 77° East 251 289 19,100 -60 Level Indianapolis Center
11:38AM 39.9981 -81.5750 76° East 249 287 19,000 -60 Descending Indianapolis Center
11:39AM 40.0161 -81.4875 75° East 248 285 19,000  Level Indianapolis Center
11:40AM 40.0342 -81.4000 75° East 249 287 19,000  Level Indianapolis Center
11:41AM 40.0517 -81.3117 75° East 249 287 19,000  Level Indianapolis Center
11:42AM 40.0686 -81.2242 76° East 248 285 19,000  Level Indianapolis Center
11:43AM 40.0897 -81.1217 75° East 248 285 19,000  Level Indianapolis Center
11:44AM 40.0994 -81.0989 61° Northeast 241 277 19,000  Level Cleveland Center
11:45AM 40.1206 -81.0119 72° East 241 277 19,000  Level Cleveland Center
11:46AM 40.1439 -80.9281 70° East 246 283 19,000  Level Cleveland Center
11:47AM 40.1669 -80.8467 70° East 246 283 19,000  Level Cleveland Center
11:48AM 40.1922 -80.7597 69° East 246 283 19,000  Level Cleveland Center
11:49AM 40.2150 -80.6783 70° East 246 283 19,000  Level Cleveland Center
11:50AM 40.2361 -80.5939 72° East 246 283 19,000  Level Cleveland Center
11:51AM 40.2611 -80.5069 69° East 246 283 19,000  Level Cleveland Center
11:52AM 40.2858 -80.4253 68° East 246 283 19,000  Level Cleveland Center
11:53AM 40.3108 -80.3325 71° East 242 278 19,000  Level Cleveland Center
11:54AM 40.3294 -80.2589 72° East 242 278 19,000  Level Cleveland Center
11:55AM 40.3542 -80.1772 68° East 242 278 19,000  Level Cleveland Center
11:56AM 40.3747 -80.0925 72° East 242 278 19,000  Level Cleveland Center
11:57AM 40.3992 -80.0133 68° East 242 278 19,000  Level Cleveland Center
11:58AM 40.4258 -79.9203 69° East 237 273 19,000  Level Cleveland Center
11:59AM 40.4503 -79.8383 69° East 237 273 19,000  Level Cleveland Center
12:00PM 40.4728 -79.7533 71° East 237 273 19,000  Level Cleveland Center
12:01PM 40.4950 -79.6711 70° East 237 273 19,000  Level Cleveland Center
12:02PM 40.5194 -79.5889 69° East 237 273 19,000  Level Cleveland Center
12:03PM 40.5417 -79.5067 70° East 237 273 19,000  Level Cleveland Center
12:04PM 40.5658 -79.4214 70° East 232 267 19,000  Level Cleveland Center
12:05PM 40.5878 -79.3392 71° East 232 267 19,000  Level Cleveland Center
12:06PM 40.6097 -79.2567 71° East 232 267 19,000  Level Cleveland Center
12:07PM 40.6339 -79.1714 69° East 237 273 19,000  Level Cleveland Center
12:08PM 40.6556 -79.0889 71° East 237 273 19,000  Level Cleveland Center
12:09PM 40.6797 -79.0089 68° East 237 273 19,000  Level Cleveland Center
12:10PM 40.7033 -78.9178 71° East 237 273 19,000  Level Cleveland Center
12:11PM 40.7250 -78.8350 71° East 237 273 19,000  Level Cleveland Center
12:13PM 40.7711 -78.6664 70° East 248 285 19,000  Level New York Center
12:14PM 40.7958 -78.5761 70° East 248 285 19,000  Level New York Center
12:15PM 40.8181 -78.4908 71° East 243 280 19,000  Level New York Center
12:16PM 40.8403 -78.4056 71° East 243 280 19,000  Level New York Center
12:17PM 40.8661 -78.3258 67° East 243 280 19,000  Level New York Center
12:18PM 40.8881 -78.2433 71° East 243 280 19,000  Level New York Center
12:19PM 40.9119 -78.1608 69° East 243 280 19,000  Level New York Center
12:20PM 40.9358 -78.0808 68° East 243 280 19,000  Level New York Center
12:21PM 40.9594 -78.0008 69° East 243 280 19,000  Level New York Center
12:22PM 40.9833 -77.9181 69° East 243 280 19,000  Level New York Center
12:23PM 41.0072 -77.8325 70° East 243 280 19,000  Level New York Center
12:24PM 41.0300 -77.7608 67° East 238 274 19,000  Level New York Center
12:25PM 41.0558 -77.6781 67° East 238 274 19,000  Level New York Center
12:26PM 41.0814 -77.5981 67° East 238 274 19,000  Level New York Center
12:27PM 41.1069 -77.5153 68° East 238 274 19,000  Level New York Center
12:28PM 41.1344 -77.4325 66° East 238 274 19,000  Level New York Center
12:29PM 41.1606 -77.3386 70° East 243 280 19,000  Level New York Center
12:30PM 41.1878 -77.2586 66° East 243 280 19,000  Level New York Center
12:31PM 41.2133 -77.1753 68° East 243 280 19,000  Level New York Center
12:32PM 41.2406 -77.0925 66° East 243 280 19,000  Level New York Center
12:33PM 41.2661 -77.0064 68° East 243 280 19,000 -300 Level New York Center
12:34PM 41.2956 -76.9208 65° Northeast 243 280 18,500 -540 Descending New York Center
12:35PM 41.3233 -76.8267 69° East 248 285 18,000 -420 Descending New York Center
12:36PM 41.3550 -76.7356 65° Northeast 261 300 17,700 -420 Descending New York Center
12:37PM 41.3886 -76.6444 64° Northeast 272 313 17,200 -360 Descending New York Center
12:38PM 41.4200 -76.5558 65° Northeast 272 313 17,000 -120 Descending New York Center
12:39PM 41.4533 -76.4703 63° Northeast 267 307 17,000  Level New York Center
12:40PM 41.4800 -76.3922 65° Northeast 262 302 17,000  Level New York Center
12:41PM 41.5053 -76.3000 70° East 257 296 17,000  Level New York Center
12:42PM 41.5222 -76.1989 77° East 252 290 17,000  Level New York Center
12:43PM 41.5389 -76.1089 76° East 252 290 17,000  Level New York Center
12:44PM 41.5556 -76.0158 77° East 260 299 17,000  Level New York Center
12:45PM 41.5697 -75.9311 77° East 255 293 17,000  Level New York Center
12:46PM 41.5861 -75.8408 76° East 255 293 17,000  Level New York Center
12:47PM 41.6028 -75.7394 78° East 255 293 17,000  Level New York Center
12:48PM 41.6189 -75.6544 76° East 255 293 17,000  Level New York Center
12:49PM 41.6356 -75.5531 78° East 255 293 17,000  Level New York Center
12:50PM 41.6414 -75.4564 85° East 255 293 17,000  Level New York Center
12:51PM 41.6514 -75.2964 85° East 261 300 17,100  Climbing Boston Center
12:52PM 41.6558 -75.2019 86° East 261 300 17,100  Level Boston Center
12:53PM 41.6625 -75.1078 85° East 261 300 17,100 -60 Level Boston Center
12:54PM 41.6647 -75.0050 88° East 256 295 17,000 -60 Descending Boston Center
12:55PM 41.6689 -74.9081 87° East 256 295 17,000  Level Boston Center
12:56PM 41.6772 -74.8111 83° East 256 295 17,100  Climbing Boston Center
12:57PM 41.7042 -74.7258 67° East 256 295 17,000 -120 Descending Boston Center
12:58PM 41.7350 -74.6378 65° Northeast 256 295 16,900 -60 Descending Boston Center
12:59PM 41.7639 -74.5525 66° East 251 289 16,900  Level Boston Center
01:00PM 41.7903 -74.4644 68° East 251 289 16,900  Level Boston Center
01:01PM 41.8169 -74.3733 69° East 251 289 17,000  Climbing Boston Center
01:03PM 41.8414 -74.2850 70° East 251 289 17,000  Level Boston Center
01:04PM 41.8681 -74.1881 70° East 246 283 17,000  Level Boston Center
01:05PM 41.8964 -74.0994 67° East 246 283 17,000  Level Boston Center
01:06PM 41.9250 -73.9997 69° East 251 289 17,000  Level Boston Center
01:07PM 41.9489 -73.9194 68° East 251 289 17,000  Level Boston Center
01:08PM 41.9792 -73.8253 67° East 251 289 17,000  Level Boston Center
01:09PM 42.0053 -73.7447 66° East 251 289 17,000 -60 Level Boston Center
01:10PM 42.0375 -73.6533 65° Northeast 251 289 16,900  Descending Boston Center
01:11PM 42.0656 -73.5700 66° East 251 289 17,000 -120 Climbing Boston Center
01:12PM 42.0933 -73.4836 67° East 251 289 16,700 -360 Descending Boston Center
01:13PM 42.1233 -73.3917 66° East 256 295 16,300 -420 Descending Boston Center
01:14PM 42.1617 -73.2917 63° Northeast 256 295 15,900 -480 Descending Boston Center
01:15PM 42.1956 -73.2050 62° Northeast 256 295 15,400 -420 Descending Boston Center
01:16PM 42.2192 -73.1325 66° East 256 295 15,100 -240 Descending Boston Center
01:17PM 42.2550 -73.0264 65° Northeast 256 295 15,000 -120 Descending Boston Center
01:18PM 42.2847 -72.9369 66° East 256 295 14,900  Descending Boston Center
01:19PM 42.3122 -72.8500 67° East 256 295 15,000  Climbing Boston Center
01:20PM 42.3353 -72.7828 65° Northeast 256 295 15,000  Level Boston Center
01:21PM 42.3731 -72.6761 64° Northeast 256 295 15,000  Level Boston Center
01:22PM 42.3983 -72.6003 66° East 256 295 15,000 -60 Level Boston Center
01:23PM 42.4253 -72.5103 68° East 251 289 14,900 -180 Descending Boston Center
01:24PM 42.4503 -72.4175 70° East 256 295 14,700 -600 Descending Boston Center
01:25PM 42.4794 -72.3247 67° East 261 300 13,800 -960 Descending Boston Center
01:26PM 42.5064 -72.2147 72° East 273 314 12,800 -1,020 Descending Boston Center
01:27PM 42.5292 -72.1133 73° East 273 314 11,800 -1,080 Descending Boston Center
01:28PM 42.5392 -72.0117 82° East 268 308 10,700 -1,140 Descending Boston Center
01:29PM 42.5325 -71.9047 95° East 278 320 9,600 -1,200 Descending Boston Center
01:30PM 42.5278 -71.8033 94° East 272 313 8,400 -1,320 Descending Boston Center
01:31PM 42.5231 -71.7047 94° East 272 313 7,000 -1,380 Descending Boston Center
01:32PM 42.5203 -71.6203 93° East 244 281 5,700 -960 Descending Boston Center
01:32PM 42.5167 -71.5500 94° East 215 247 5,300 -1,020 Descending KA90
01:33PM 42.5000 -71.4667 105° East 205 236 3,900 -1,200 Descending KA90
01:34PM 42.5000 -71.3833 90° East 212 244 2,900 -780 Descending KA90
01:35PM 42.5000 -71.3167 90° East 186 214 2,300 -720 Descending KA90
01:36PM 42.5000 -71.2667 90° East 146 168 1,600 -900 Descending KA90
01:37PM 42.4833 -71.2500 144° Southeast 114 131 700 4,140 Descending KA90
01:40PM 42.4169 -71.2450 177° South 92 106 15,000 4,320 Climbing Boston Center
01:41PM 42.3900 -71.2397 172° South 92 106 15,000  Level Boston Center
01:42PM 42.3753 -71.2344 165° South 92 106 15,000  Level Boston Center
01:45PM 42.4667 -71.2833 340° North  Level FlightAware Approximate
01:52PM 42.4699 -71.2890 340° North  Level Estimated